• Join FlightAware (Why Join?)
  • Login
  • US Flag 
12:01PM EDT


 

Airport Tracker/Info


-or-


 

Live Flight TrackerFlight Track Log ✈ AAL1459 ✈ 17-May-2013 ✈ KORD - KRNO

Flight Track Log - Related Links

Times and Time Zones

All times are in EDT time to prevent confusion due to time zone crossing. See the AAL1459 flight status page for this flight to view local times or setup timezone preferences in your user account.

Time Position Orientation Groundspeed Altitude Reporting Facility
EDT Latitude Longitude Course Direction KTS MPH feet Rate Location/Type
06:27PM 41.9980 -87.9400 320° Northwest 175 201 1,700  Level FlightAware
06:28PM 42.0220 -87.9610 327° Northwest 220 253 2,400 1,200 Climbing FlightAware
06:28PM 42.0350 -87.9730 326° Northwest 247 284 2,600 1,620 Climbing FlightAware
06:29PM 42.0610 -87.9960 327° Northwest 272 313 3,500 2,040 Climbing FlightAware
06:29PM 42.0890 -88.0210 326° Northwest 281 323 4,500 2,040 Climbing FlightAware
06:30PM 42.1180 -88.0470 326° Northwest 282 325 5,400 2,520 Climbing FlightAware
06:30PM 42.1340 -88.0630 323° Northwest 282 325 6,200 3,360 Climbing FlightAware
06:30PM 42.1450 -88.0880 301° West 282 325 7,100 3,780 Climbing FlightAware
06:30PM 42.1480 -88.1150 279° West 275 316 8,100 3,180 Climbing FlightAware
06:31PM 42.1480 -88.1380 270° West 278 320 8,700 2,820 Climbing FlightAware
06:31PM 42.1480 -88.2070 270° West 285 328 10,700 2,940 Climbing FlightAware
06:32PM 42.1460 -88.2920 268° West 294 338 12,900 2,400 Climbing FlightAware
06:33PM 42.1450 -88.3720 269° West 326 375 14,100 2,040 Climbing FlightAware
06:33PM 42.1430 -88.4620 268° West 337 388 15,800 2,280 Climbing FlightAware
06:34PM 42.1380 -88.5490 266° West 345 397 17,400 2,100 Climbing FlightAware
06:35PM 42.1310 -88.6340 264° West 364 419 18,600 1,920 Climbing FlightAware
06:35PM 42.1210 -88.7410 263° West 377 434 20,200 2,100 Climbing FlightAware
06:36PM 42.1120 -88.8340 263° West 381 438 21,600 2,100 Climbing FlightAware
06:37PM 42.1030 -88.9280 263° West 386 444 23,000 1,920 Climbing FlightAware
06:38PM 42.0940 -89.0380 264° West 390 449 24,400 1,740 Climbing FlightAware
06:38PM 42.0860 -89.1300 263° West 394 453 25,500 1,320 Climbing FlightAware
06:39PM 42.0750 -89.2460 263° West 411 473 26,300 1,020 Climbing FlightAware
06:40PM 42.0660 -89.3480 263° West 425 489 27,000 1,080 Climbing FlightAware
06:40PM 42.0590 -89.4550 265° West 434 499 27,800 1,200 Climbing FlightAware
06:41PM 42.0570 -89.5750 269° West 440 506 28,700 1,260 Climbing FlightAware
06:42PM 42.0560 -89.6830 269° West 442 509 29,600 1,200 Climbing FlightAware
06:42PM 42.0540 -89.7930 269° West 446 513 30,300 1,020 Climbing FlightAware
06:43PM 42.0530 -89.9230 269° West 452 520 31,100 1,080 Climbing FlightAware
06:44PM 42.0510 -90.0360 269° West 452 520 31,900 1,080 Climbing FlightAware
06:45PM 42.0490 -90.1580 269° West 453 521 32,700 1,020 Climbing FlightAware
06:45PM 42.0470 -90.2510 268° West 454 522 33,300 960 Climbing FlightAware
06:46PM 42.0500 -90.3990 272° West 454 522 34,100 960 Climbing FlightAware
06:47PM 42.0560 -90.5090 274° West 451 519 34,800 1,020 Climbing FlightAware
06:47PM 42.0630 -90.6210 275° West 450 518 35,500 900 Climbing FlightAware
06:48PM 42.0680 -90.7260 274° West 447 514 36,000 300 Climbing FlightAware
06:49PM 42.0750 -90.8700 274° West 444 511 36,000  Level FlightAware
06:49PM 42.0800 -90.9660 274° West 444 511 36,000  Level FlightAware
06:50PM 42.0870 -91.1050 274° West 441 507 36,000  Level FlightAware
06:51PM 42.0920 -91.2100 274° West 436 502 36,000  Level FlightAware
06:52PM 42.0980 -91.3240 274° West 434 499 36,000  Level FlightAware
06:52PM 42.1030 -91.4430 273° West 432 497 36,000  Level FlightAware
06:53PM 42.1080 -91.5470 274° West 431 496 36,000  Level FlightAware
06:54PM 42.1130 -91.6530 274° West 429 494 36,000  Level FlightAware
06:54PM 42.1180 -91.7630 274° West 427 491 36,000  Level FlightAware
06:55PM 42.1230 -91.8800 273° West 426 490 36,000  Level FlightAware
06:56PM 42.1280 -91.9910 274° West 429 494 36,000  Level FlightAware
06:56PM 42.1320 -92.1040 273° West 430 495 36,000  Level FlightAware
06:57PM 42.1370 -92.2150 274° West 428 493 36,000  Level FlightAware
06:58PM 42.1420 -92.3350 273° West 429 494 36,000  Level FlightAware
06:59PM 42.1460 -92.4430 273° West 429 494 36,000  Level FlightAware
06:59PM 42.1500 -92.5550 273° West 429 494 36,000  Level FlightAware
07:00PM 42.1540 -92.6670 273° West 430 495 36,000  Level FlightAware
07:01PM 42.1580 -92.7750 273° West 431 496 36,000  Level FlightAware
07:01PM 42.1620 -92.8950 273° West 432 497 36,000  Level FlightAware
07:02PM 42.1660 -93.0110 273° West 432 497 36,000  Level FlightAware
07:03PM 42.1690 -93.1220 272° West 433 498 36,000  Level FlightAware
07:03PM 42.1730 -93.2320 273° West 433 498 36,000  Level FlightAware
07:04PM 42.1760 -93.3500 272° West 433 498 36,000  Level FlightAware
07:05PM 42.1800 -93.4620 273° West 434 499 36,000  Level FlightAware
07:06PM 42.1830 -93.5810 272° West 434 499 36,000  Level FlightAware
07:06PM 42.1860 -93.6890 272° West 433 498 36,000  Level FlightAware
07:07PM 42.1890 -93.7980 272° West 433 498 36,000  Level FlightAware
07:08PM 42.1920 -93.9200 272° West 433 498 36,000  Level FlightAware
07:08PM 42.1950 -94.0270 272° West 433 498 36,000  Level FlightAware
07:09PM 42.1970 -94.1340 271° West 433 498 36,000  Level FlightAware
07:10PM 42.2000 -94.2520 272° West 432 497 36,000  Level FlightAware
07:10PM 42.2020 -94.3630 271° West 432 497 36,000  Level FlightAware
07:11PM 42.2050 -94.4850 272° West 433 498 36,000  Level FlightAware
07:12PM 42.2070 -94.5920 271° West 437 503 36,000  Level FlightAware
07:13PM 42.2090 -94.6970 272° West 438 504 36,000  Level FlightAware
07:13PM 42.2110 -94.8220 271° West 439 505 36,000  Level FlightAware
07:14PM 42.2130 -94.9300 271° West 439 505 36,000  Level FlightAware
07:15PM 42.2150 -95.0550 271° West 440 506 36,000  Level FlightAware
07:15PM 42.2160 -95.1660 271° West 439 505 36,000  Level FlightAware
07:16PM 42.2180 -95.2860 271° West 440 506 36,000  Level FlightAware
07:17PM 42.2190 -95.3880 271° West 441 507 36,000  Level FlightAware
07:17PM 42.2210 -95.5070 271° West 441 507 36,000  Level FlightAware
07:18PM 42.2220 -95.6310 271° West 441 507 36,000  Level FlightAware
07:19PM 42.2230 -95.7400 271° West 439 505 36,000  Level FlightAware
07:20PM 42.2240 -95.8630 271° West 439 505 36,000  Level FlightAware
07:20PM 42.2250 -95.9680 271° West 439 505 36,000  Level FlightAware
07:21PM 42.2250 -96.0660 270° West 439 505 36,000  Level FlightAware
07:22PM 42.2260 -96.2000 271° West 436 502 36,000  Level FlightAware
07:23PM 42.2270 -96.3520 271° West 433 498 36,000 240 Level FlightAware
07:23PM 42.2280 -96.4590 271° West 432 497 36,400 720 Climbing FlightAware
07:24PM 42.2280 -96.5520 270° West 430 495 36,900 720 Climbing FlightAware
07:25PM 42.2280 -96.6700 270° West 430 495 37,400 660 Climbing FlightAware
07:25PM 42.2280 -96.8090 270° West 432 497 38,000 360 Climbing FlightAware
07:26PM 42.2280 -96.9120 270° West 432 497 38,000  Level FlightAware
07:27PM 42.2270 -97.0100 269° West 432 497 38,000  Level FlightAware
07:27PM 42.2260 -97.1020 269° West 432 497 38,000  Level FlightAware
07:28PM 42.2240 -97.1930 268° West 432 497 38,000  Level FlightAware
07:29PM 42.2230 -97.2850 269° West 432 497 38,000  Level FlightAware
07:30PM 42.2220 -97.4000 269° West 432 497 38,000  Level FlightAware
07:30PM 42.2210 -97.4920 269° West 432 497 38,000  Level FlightAware
07:31PM 42.2190 -97.5830 268° West 432 497 38,000  Level FlightAware
07:32PM 42.2180 -97.6750 269° West 432 497 38,000  Level FlightAware
07:32PM 42.2170 -97.7900 269° West 432 497 38,000  Level FlightAware
07:33PM 42.2160 -97.8810 269° West 432 497 38,000  Level FlightAware
07:34PM 42.2140 -97.9730 268° West 432 497 38,000  Level FlightAware
07:34PM 42.2130 -98.0650 269° West 432 497 38,000  Level FlightAware
07:35PM 42.2120 -98.1570 269° West 432 497 38,000  Level FlightAware
07:36PM 42.2100 -98.2710 269° West 432 497 38,000  Level FlightAware
07:36PM 42.2150 -98.5181 269° West 426 490 38,000  Level Denver Center
07:37PM 42.2122 -98.6753 269° West 423 487 38,000  Level Denver Center
07:38PM 42.2061 -98.8333 267° West 424 488 38,000  Level Minneapolis Center
07:39PM 42.1769 -98.9842 255° West 417 480 38,000  Level Minneapolis Center
07:40PM 42.1353 -99.1572 252° West 410 472 38,000  Level Minneapolis Center
07:41PM 42.1008 -99.3014 252° West 407 468 38,000  Level Denver Center
07:43PM 42.0678 -99.4469 253° West 408 470 38,000  Level Denver Center
07:44PM 42.0342 -99.5933 253° West 410 472 38,000  Level Denver Center
07:45PM 42.0017 -99.7461 254° West 409 471 38,000  Level Denver Center
07:46PM 41.9661 -99.9103 254° West 411 473 38,000  Level Denver Center
07:47PM 41.9367 -100.0528 255° West 414 476 38,000  Level Denver Center
07:48PM 41.8911 -100.2114 249° West 413 475 38,000  Level Denver Center
07:54PM 41.5290 -101.0650 249° West 422 486 38,000  Level FlightAware
07:54PM 41.5020 -101.1280 240° Southwest 424 488 38,000  Level FlightAware ADS-B
07:55PM 41.4711 -101.2000 240° Southwest 424 488 38,000  Level FlightAware ADS-B
07:55PM 41.4413 -101.2690 240° Southwest 427 491 38,000  Level FlightAware ADS-B
07:56PM 41.4213 -101.3140 239° Southwest 431 496 38,000  Level FlightAware ADS-B
07:56PM 41.4020 -101.3520 236° Southwest 433 498 38,000  Level FlightAware ADS-B
07:56PM 41.3839 -101.3830 232° Southwest 436 502 38,000  Level FlightAware ADS-B
07:56PM 41.3686 -101.4040 226° Southwest 437 503 38,000  Level FlightAware ADS-B
07:57PM 41.3241 -101.4610 224° Southwest 438 504 38,000  Level FlightAware ADS-B
07:57PM 41.2800 -101.5160 223° Southwest 440 506 38,000  Level FlightAware ADS-B
07:58PM 41.2260 -101.5860 224° Southwest 440 506 38,000  Level FlightAware
07:59PM 41.1751 -101.6510 224° Southwest 441 507 38,000  Level FlightAware ADS-B
07:59PM 41.1298 -101.7100 224° Southwest 442 509 38,000  Level FlightAware ADS-B
08:00PM 41.0853 -101.7660 223° Southwest 443 510 38,000  Level FlightAware ADS-B
08:00PM 41.0636 -101.7950 225° Southwest 441 507 38,000  Level FlightAware ADS-B
08:00PM 41.0229 -101.8570 229° Southwest 439 505 38,000  Level FlightAware ADS-B
08:01PM 40.9839 -101.9190 230° Southwest 428 493 38,000  Level FlightAware ADS-B
08:01PM 40.9449 -101.9810 230° Southwest 425 489 38,000  Level FlightAware ADS-B
08:02PM 40.9073 -102.0420 231° Southwest 424 488 38,000  Level FlightAware ADS-B
08:02PM 40.8921 -102.0670 231° Southwest 423 487 38,000  Level FlightAware ADS-B
08:02PM 40.8788 -102.0930 236° Southwest 422 486 38,000  Level FlightAware ADS-B
08:02PM 40.8692 -102.1170 242° Southwest 419 482 38,000  Level FlightAware ADS-B
08:03PM 40.8606 -102.1430 246° West 417 480 38,000  Level FlightAware ADS-B
08:03PM 40.8448 -102.2010 250° West 417 480 38,000  Level FlightAware ADS-B
08:03PM 40.8346 -102.2430 252° West 416 479 38,000  Level FlightAware ADS-B
08:04PM 40.8307 -102.2690 259° West 415 478 38,000  Level FlightAware ADS-B
08:04PM 40.8284 -102.3070 265° West 415 478 38,000  Level FlightAware ADS-B
08:04PM 40.8304 -102.3830 272° West 416 479 38,000  Level FlightAware ADS-B
08:05PM 40.8325 -102.4600 272° West 416 479 38,000  Level FlightAware ADS-B
08:05PM 40.8344 -102.5370 272° West 418 481 38,000  Level FlightAware ADS-B
08:06PM 40.8365 -102.6160 272° West 422 486 38,000  Level FlightAware ADS-B
08:06PM 40.8385 -102.6930 272° West 424 488 38,000  Level FlightAware ADS-B
08:07PM 40.8405 -102.7730 272° West 422 486 38,000  Level FlightAware ADS-B
08:07PM 40.8423 -102.8550 272° West 424 488 38,000  Level FlightAware ADS-B
08:08PM 40.8441 -102.9330 272° West 425 489 38,000  Level FlightAware ADS-B
08:08PM 40.8458 -103.0120 272° West 426 490 38,000  Level FlightAware ADS-B
08:09PM 40.8477 -103.0980 272° West 427 491 38,000  Level FlightAware ADS-B
08:09PM 40.8493 -103.1800 272° West 428 493 38,000  Level FlightAware ADS-B
08:10PM 40.8510 -103.2590 272° West 428 493 38,000  Level FlightAware ADS-B
08:10PM 40.8525 -103.3380 271° West 428 493 38,000  Level FlightAware ADS-B
08:11PM 40.8539 -103.4170 271° West 428 493 38,000  Level FlightAware ADS-B
08:11PM 40.8555 -103.4970 272° West 428 493 38,000  Level FlightAware ADS-B
08:12PM 40.8568 -103.5750 271° West 427 491 38,000  Level FlightAware ADS-B
08:12PM 40.8581 -103.6530 271° West 421 484 38,000  Level FlightAware ADS-B
08:13PM 40.8592 -103.7300 271° West 416 479 38,000  Level FlightAware ADS-B
08:13PM 40.8603 -103.8060 271° West 413 475 38,000  Level FlightAware ADS-B
08:14PM 40.8613 -103.8830 271° West 414 476 38,000  Level FlightAware ADS-B
08:15PM 40.8624 -103.9590 271° West 413 475 38,000  Level FlightAware ADS-B
08:15PM 40.8634 -104.0350 271° West 413 475 38,000  Level FlightAware ADS-B
08:16PM 40.8642 -104.1110 271° West 415 478 38,000  Level FlightAware ADS-B
08:16PM 40.8650 -104.1880 271° West 416 479 38,000  Level FlightAware ADS-B
08:17PM 40.8659 -104.2650 271° West 418 481 38,000  Level FlightAware ADS-B
08:17PM 40.8667 -104.3420 271° West 417 480 38,000  Level FlightAware ADS-B
08:18PM 40.8674 -104.4200 271° West 419 482 38,000  Level FlightAware ADS-B
08:18PM 40.8681 -104.4970 271° West 421 484 38,000  Level FlightAware ADS-B
08:19PM 40.8688 -104.5790 271° West 422 486 38,000  Level FlightAware ADS-B
08:19PM 40.8694 -104.6570 271° West 423 487 38,000  Level FlightAware ADS-B
08:20PM 40.8700 -104.7360 271° West 427 491 38,000  Level FlightAware ADS-B
08:20PM 40.8705 -104.8140 271° West 429 494 38,000  Level FlightAware ADS-B
08:21PM 40.8708 -104.8940 270° West 430 495 38,000  Level FlightAware ADS-B
08:21PM 40.8712 -104.9740 270° West 429 494 38,000  Level FlightAware ADS-B
08:22PM 40.8715 -105.0520 270° West 419 482 38,000  Level FlightAware ADS-B
08:22PM 40.8717 -105.1330 270° West 410 472 38,000  Level FlightAware ADS-B
08:23PM 40.8719 -105.2280 270° West 411 473 38,000  Level FlightAware ADS-B
08:23PM 40.8720 -105.3150 270° West 412 474 38,000  Level FlightAware ADS-B
08:24PM 40.8720 -105.3780 270° West 412 474 38,000  Level FlightAware
08:24PM 40.8721 -105.4270 270° West 411 473 38,000  Level FlightAware ADS-B
08:25PM 40.8720 -105.4970 270° West 413 475 38,000  Level FlightAware
08:25PM 40.8722 -105.5430 270° West 412 474 38,000  Level FlightAware ADS-B
08:25PM 40.8722 -105.6250 270° West 410 472 38,000  Level FlightAware ADS-B
08:26PM 40.8720 -105.7030 270° West 406 467 38,000  Level FlightAware
08:27PM 40.8720 -105.8210 270° West 406 467 38,000  Level FlightAware
08:27PM 40.8710 -105.9220 269° West 406 467 38,000  Level FlightAware
08:28PM 40.8710 -106.0240 270° West 408 470 38,000  Level FlightAware
08:29PM 40.8700 -106.1170 269° West 410 472 38,000  Level FlightAware
08:30PM 40.8690 -106.2490 269° West 410 472 38,000  Level FlightAware
08:30PM 40.8690 -106.3460 270° West 412 474 38,000  Level FlightAware
08:31PM 40.8680 -106.4580 269° West 413 475 38,000  Level FlightAware
08:32PM 40.8670 -106.5600 269° West 415 478 38,000  Level FlightAware
08:33PM 40.8660 -106.6810 269° West 416 479 38,000  Level FlightAware
08:33PM 40.8640 -106.7890 269° West 416 479 38,000  Level FlightAware
08:34PM 40.8630 -106.8760 269° West 416 479 38,000  Level FlightAware
08:35PM 40.8620 -106.9620 269° West 416 479 38,000  Level FlightAware
08:35PM 40.8610 -107.0490 269° West 416 479 38,000  Level FlightAware
08:36PM 40.8600 -107.1350 269° West 416 479 38,000  Level FlightAware
08:37PM 40.8580 -107.2430 269° West 416 479 38,000  Level FlightAware
08:38PM 40.8570 -107.3300 269° West 416 479 38,000  Level FlightAware
08:38PM 40.8560 -107.4160 269° West 416 479 38,000  Level FlightAware
08:39PM 40.8550 -107.5030 269° West 416 479 38,000  Level FlightAware
08:40PM 40.8540 -107.5890 269° West 416 479 38,000  Level FlightAware
08:40PM 40.8520 -107.6970 269° West 416 479 38,000  Level FlightAware
08:41PM 40.8510 -107.7840 269° West 416 479 38,000  Level FlightAware
08:42PM 40.8500 -107.8700 269° West 416 479 38,000  Level FlightAware
08:42PM 40.8400 -108.1933 269° West 410 472 38,000  Level Salt Lake Center
08:43PM 40.8364 -108.3353 268° West 407 468 38,000  Level Denver Center
08:44PM 40.8336 -108.4808 269° West 412 474 38,000  Level Denver Center
08:45PM 40.8286 -108.6478 268° West 408 470 38,000  Level Denver Center
08:46PM 40.8236 -108.7922 267° West 409 471 38,000  Level Denver Center
08:48PM 40.8197 -108.9383 268° West 411 473 38,000  Level Denver Center
08:49PM 40.8147 -109.1044 268° West 406 467 38,000  Level Denver Center
08:50PM 40.8100 -109.2597 268° West 405 466 38,000  Level Salt Lake Center
08:51PM 40.8050 -109.4028 267° West 408 470 38,000  Level Salt Lake Center
08:52PM 40.7992 -109.5675 267° West 405 466 38,000  Level Salt Lake Center
08:53PM 40.7947 -109.7081 268° West 402 463 38,000  Level Salt Lake Center
08:54PM 40.7886 -109.8717 267° West 400 460 38,000  Level Salt Lake Center
08:55PM 40.7828 -110.0122 267° West 402 463 38,000  Level Salt Lake Center
08:56PM 40.7756 -110.1764 267° West 402 463 38,000  Level Salt Lake Center
09:01PM 40.7420 -110.9610 267° West 405 466 38,000  Level FlightAware
09:02PM 40.7370 -111.0610 266° West 407 468 38,000  Level FlightAware
09:03PM 40.7310 -111.1940 267° West 410 472 38,000  Level FlightAware
09:03PM 40.7250 -111.3080 266° West 410 472 38,000  Level FlightAware
09:04PM 40.7210 -111.3900 266° West 409 471 38,000  Level FlightAware
09:05PM 40.7140 -111.5110 266° West 412 474 38,000  Level FlightAware
09:06PM 40.7090 -111.6210 267° West 416 479 38,000  Level FlightAware
09:06PM 40.7140 -111.7220 274° West 421 484 38,000  Level FlightAware
09:07PM 40.7200 -111.8380 274° West 424 488 38,000  Level FlightAware
09:08PM 40.7250 -111.9400 274° West 424 488 38,000  Level FlightAware
09:08PM 40.7400 -112.0590 279° West 436 502 38,000  Level FlightAware
09:09PM 40.7530 -112.1620 279° West 439 505 38,000  Level FlightAware
09:10PM 40.7640 -112.2700 278° West 441 507 38,000  Level FlightAware
09:10PM 40.7720 -112.3900 275° West 444 511 38,000  Level FlightAware
09:11PM 40.7800 -112.4980 276° West 445 512 38,000  Level FlightAware
09:12PM 40.7860 -112.5950 275° West 444 511 38,000  Level FlightAware
09:12PM 40.7930 -112.6900 276° West 446 513 38,000  Level FlightAware
09:13PM 40.8010 -112.8070 275° West 446 513 38,000  Level FlightAware
09:14PM 40.8080 -112.9230 275° West 446 513 38,000  Level FlightAware
09:15PM 40.8140 -113.0150 275° West 446 513 38,000  Level FlightAware
09:15PM 40.8210 -113.1070 276° West 446 513 38,000  Level FlightAware
09:16PM 40.8270 -113.2000 275° West 446 513 38,000  Level FlightAware
09:17PM 40.8330 -113.2920 275° West 446 513 38,000  Level FlightAware
09:17PM 40.8400 -113.4080 275° West 446 513 38,000  Level FlightAware
09:18PM 40.8470 -113.5000 276° West 446 513 38,000  Level FlightAware
09:19PM 40.8530 -113.5920 275° West 446 513 38,000  Level FlightAware
09:19PM 40.8590 -113.6850 275° West 446 513 38,000  Level FlightAware
09:20PM 40.8650 -113.7770 275° West 446 513 38,000  Level FlightAware
09:21PM 40.8720 -113.8930 275° West 446 513 38,000  Level FlightAware
09:22PM 40.8790 -113.9850 276° West 446 513 38,000  Level FlightAware
09:22PM 40.8850 -114.0780 275° West 446 513 38,000  Level FlightAware
09:23PM 40.7086 -114.4564 275° West 432 497 38,000  Level Salt Lake Center
09:25PM 40.6889 -114.6117 261° West 430 495 38,000  Level Salt Lake Center
09:26PM 40.6689 -114.7667 260° West 430 495 38,000  Level Salt Lake Center
09:27PM 40.6506 -114.9128 261° West 432 497 38,000  Level Salt Lake Center
09:28PM 40.6283 -115.0875 261° West 433 498 38,000  Level Salt Lake Center
09:29PM 40.6064 -115.2358 259° West 431 496 38,000  Level Salt Lake Center
09:30PM 40.5842 -115.4072 260° West 425 489 38,000  Level Salt Lake Center
09:31PM 40.5639 -115.5525 260° West 423 487 38,000  Level Salt Lake Center
09:32PM 40.5428 -115.7225 261° West 422 486 38,100  Climbing Salt Lake Center
09:33PM 40.5242 -115.8706 261° West 426 490 38,000 -60 Descending Salt Lake Center
09:34PM 40.5044 -116.0156 260° West 424 488 38,000  Level Salt Lake Center
09:35PM 40.4806 -116.1856 260° West 423 487 38,000  Level Salt Lake Center
09:36PM 40.4611 -116.3311 260° West 424 488 38,000  Level Salt Lake Center
09:37PM 40.4372 -116.5019 260° West 425 489 38,000  Level Salt Lake Center
09:38PM 40.4167 -116.6497 260° West 429 494 38,000  Level Salt Lake Center
09:39PM 40.3931 -116.8100 259° West 430 495 38,000  Level Salt Lake Center
09:40PM 40.3697 -116.9633 259° West 430 495 38,000  Level Salt Lake Center
09:41PM 40.3475 -117.1317 260° West 436 502 38,000 -420 Level Salt Lake Center
09:42PM 40.3247 -117.2792 259° West 433 498 37,200 -960 Descending Salt Lake Center
09:43PM 40.2989 -117.4542 259° West 437 503 36,100 -1,080 Descending Salt Lake Center
09:44PM 40.2767 -117.6006 259° West 431 496 35,100 -960 Descending Salt Lake Center
09:45PM 40.2544 -117.7489 259° West 433 498 34,200 -540 Descending Salt Lake Center
09:46PM 40.2281 -117.9189 259° West 429 494 34,000 -120 Descending Salt Lake Center
09:47PM 40.2144 -118.0131 259° West 427 491 34,000 -180 Level Oakland Center
09:48PM 40.1908 -118.1636 258° West 424 488 33,700 -660 Descending Oakland Center
09:49PM 40.1678 -118.3097 258° West 415 478 32,700 -1,260 Descending Oakland Center
09:50PM 40.1397 -118.4878 258° West 419 482 31,200 -2,100 Descending Oakland Center
09:51PM 40.0914 -118.6200 244° Southwest 416 479 28,500 -2,520 Descending Oakland Center
09:52PM 40.0053 -118.7267 224° Southwest 425 489 26,100 -2,340 Descending Oakland Center
09:53PM 39.9228 -118.8272 223° Southwest 413 475 23,800 -2,220 Descending Oakland Center
09:54PM 39.8419 -118.9256 223° Southwest 401 461 21,600 -2,100 Descending Oakland Center
09:55PM 39.7650 -119.0197 223° Southwest 387 445 19,500 -2,040 Descending Oakland Center
09:56PM 39.6894 -119.1094 222° Southwest 374 430 17,500 -1,800 Descending Oakland Center
09:57PM 39.6017 -119.2156 223° Southwest 363 418 15,900 -1,320 Descending Oakland Center
09:58PM 39.5336 -119.2981 223° Southwest 344 396 14,900 -1,320 Descending Oakland Center
09:59PM 39.4675 -119.3767 223° Southwest 328 377 13,300 -1,680 Descending Oakland Center
10:00PM 39.4047 -119.4533 223° Southwest 317 365 11,600 -1,140 Descending Oakland Center
10:01PM 39.3433 -119.5267 223° Southwest 308 354 11,000 -360 Descending Oakland Center
10:02PM 39.2814 -119.5994 222° Southwest 305 351 10,900 -540 Descending Oakland Center
10:03PM 39.2211 -119.6775 225° Southwest 306 352 10,000 -900 Descending Oakland Center
10:09PM 39.4550 -119.7670 225° Southwest 171 197 5,200 -840 Descending FlightAware
10:09PM 39.4750 -119.7680 358° North 171 197 5,200  Level FlightAware